Anthony, Pennsylvania
Current Conditions -  °F | °C
As of 5:16 AM on Monday 20 Oct 2014 (Local Time) from KIPT Reporting Station
Few Clouds Few Clouds  
Wind Chill: 35°   Ceiling: Unl
Heat Index: 35°   Visibility: 10mi
Dew Point: 30°   Wind: 0mph
Humidity: 82%   Direction: NA
Pressure: 30.07"   Gusts: NA
Location:  41.1183°N, 76.7254°W
Report Text: KIPT 200916Z AUTO 00000KT 10SM FEW007 02/M01 A3007 RMK AO2 T00171011
Loading
Personal Weather Stations






























Interactive Weather Map
Tropical Storm Tracking
New forecast layout! Learn more

10-Day Weather Forecast

Advertisements
Track Severe Weather on mobile